sensor_id;sensor_type;location;lat;lon;timestamp;P1;durP1;ratioP1;P2;durP2;ratioP2
6193;SDS011;3130;41.564;23.280;2023-04-23T00:00:29;11.07;;;9.77;;
6193;SDS011;3130;41.564;23.280;2023-04-23T00:02:58;9.93;;;8.90;;
6193;SDS011;3130;41.564;23.280;2023-04-23T00:05:30;9.43;;;8.47;;
6193;SDS011;3130;41.564;23.280;2023-04-23T00:07:58;10.73;;;8.90;;
6193;SDS011;3130;41.564;23.280;2023-04-23T00:10:27;10.63;;;9.53;;
6193;SDS011;3130;41.564;23.280;2023-04-23T00:12:55;10.97;;;9.87;;
6193;SDS011;3130;41.564;23.280;2023-04-23T00:15:22;11.57;;;9.27;;
6193;SDS011;3130;41.564;23.280;2023-04-23T00:17:51;9.17;;;8.27;;
6193;SDS011;3130;41.564;23.280;2023-04-23T00:20:18;10.37;;;9.07;;
6193;SDS011;3130;41.564;23.280;2023-04-23T00:22:45;12.30;;;10.00;;
6193;SDS011;3130;41.564;23.280;2023-04-23T00:25:13;10.00;;;8.73;;
6193;SDS011;3130;41.564;23.280;2023-04-23T00:27:40;10.60;;;9.43;;
6193;SDS011;3130;41.564;23.280;2023-04-23T00:30:07;9.90;;;8.90;;
6193;SDS011;3130;41.564;23.280;2023-04-23T00:32:34;10.33;;;9.33;;
6193;SDS011;3130;41.564;23.280;2023-04-23T00:35:03;9.60;;;8.63;;
6193;SDS011;3130;41.564;23.280;2023-04-23T00:37:31;11.90;;;9.83;;
6193;SDS011;3130;41.564;23.280;2023-04-23T00:39:58;9.03;;;8.13;;
6193;SDS011;3130;41.564;23.280;2023-04-23T00:42:25;11.87;;;9.20;;
6193;SDS011;3130;41.564;23.280;2023-04-23T00:44:52;11.07;;;9.27;;
6193;SDS011;3130;41.564;23.280;2023-04-23T00:47:20;9.43;;;8.53;;
6193;SDS011;3130;41.564;23.280;2023-04-23T00:49:48;11.77;;;8.30;;
6193;SDS011;3130;41.564;23.280;2023-04-23T00:52:18;11.23;;;8.37;;
6193;SDS011;3130;41.564;23.280;2023-04-23T00:54:45;8.87;;;6.10;;
6193;SDS011;3130;41.564;23.280;2023-04-23T00:57:12;9.77;;;8.70;;
6193;SDS011;3130;41.564;23.280;2023-04-23T00:59:41;10.17;;;9.17;;
6193;SDS011;3130;41.564;23.280;2023-04-23T01:02:08;10.13;;;8.57;;
6193;SDS011;3130;41.564;23.280;2023-04-23T01:04:35;10.93;;;9.83;;
6193;SDS011;3130;41.564;23.280;2023-04-23T01:07:03;10.00;;;8.93;;
6193;SDS011;3130;41.564;23.280;2023-04-23T01:09:33;10.97;;;9.33;;
6193;SDS011;3130;41.564;23.280;2023-04-23T01:12:00;12.67;;;9.80;;
6193;SDS011;3130;41.564;23.280;2023-04-23T01:14:28;9.43;;;8.53;;
6193;SDS011;3130;41.564;23.280;2023-04-23T01:16:55;8.77;;;7.53;;
6193;SDS011;3130;41.564;23.280;2023-04-23T01:19:22;11.43;;;8.57;;
6193;SDS011;3130;41.564;23.280;2023-04-23T01:21:49;10.00;;;8.07;;
6193;SDS011;3130;41.564;23.280;2023-04-23T01:24:18;10.90;;;9.47;;
6193;SDS011;3130;41.564;23.280;2023-04-23T01:26:45;10.13;;;9.13;;
6193;SDS011;3130;41.564;23.280;2023-04-23T01:29:12;10.77;;;8.43;;
6193;SDS011;3130;41.564;23.280;2023-04-23T01:31:40;9.57;;;8.37;;
6193;SDS011;3130;41.564;23.280;2023-04-23T01:34:08;11.13;;;8.57;;
6193;SDS011;3130;41.564;23.280;2023-04-23T01:36:36;10.17;;;8.73;;
6193;SDS011;3130;41.564;23.280;2023-04-23T01:39:03;8.90;;;7.73;;
6193;SDS011;3130;41.564;23.280;2023-04-23T01:41:32;9.13;;;8.13;;
6193;SDS011;3130;41.564;23.280;2023-04-23T01:43:59;16.03;;;8.97;;
6193;SDS011;3130;41.564;23.280;2023-04-23T01:46:30;9.17;;;8.27;;
6193;SDS011;3130;41.564;23.280;2023-04-23T01:48:57;10.33;;;9.23;;
6193;SDS011;3130;41.564;23.280;2023-04-23T01:51:24;11.57;;;9.13;;
6193;SDS011;3130;41.564;23.280;2023-04-23T01:53:51;9.97;;;8.67;;
6193;SDS011;3130;41.564;23.280;2023-04-23T01:56:18;10.70;;;8.43;;
6193;SDS011;3130;41.564;23.280;2023-04-23T01:58:50;8.27;;;7.47;;
6193;SDS011;3130;41.564;23.280;2023-04-23T02:01:17;10.13;;;8.97;;
6193;SDS011;3130;41.564;23.280;2023-04-23T02:03:44;11.10;;;9.60;;
6193;SDS011;3130;41.564;23.280;2023-04-23T02:06:12;13.23;;;8.40;;
6193;SDS011;3130;41.564;23.280;2023-04-23T02:08:39;10.00;;;9.00;;
6193;SDS011;3130;41.564;23.280;2023-04-23T02:11:06;9.70;;;8.70;;
6193;SDS011;3130;41.564;23.280;2023-04-23T02:13:33;9.23;;;8.10;;
6193;SDS011;3130;41.564;23.280;2023-04-23T02:16:02;10.50;;;9.30;;
6193;SDS011;3130;41.564;23.280;2023-04-23T02:18:29;10.03;;;9.00;;
6193;SDS011;3130;41.564;23.280;2023-04-23T02:20:56;12.07;;;9.17;;
6193;SDS011;3130;41.564;23.280;2023-04-23T02:23:24;10.93;;;9.83;;
6193;SDS011;3130;41.564;23.280;2023-04-23T02:25:51;12.57;;;10.17;;
6193;SDS011;3130;41.564;23.280;2023-04-23T02:28:18;11.73;;;8.87;;
6193;SDS011;3130;41.564;23.280;2023-04-23T02:30:45;10.33;;;9.20;;
6193;SDS011;3130;41.564;23.280;2023-04-23T02:33:13;12.40;;;9.13;;
6193;SDS011;3130;41.564;23.280;2023-04-23T02:35:40;10.47;;;9.27;;
6193;SDS011;3130;41.564;23.280;2023-04-23T02:38:07;11.27;;;9.10;;
6193;SDS011;3130;41.564;23.280;2023-04-23T02:40:34;8.63;;;7.73;;
6193;SDS011;3130;41.564;23.280;2023-04-23T02:43:01;12.77;;;8.10;;
6193;SDS011;3130;41.564;23.280;2023-04-23T02:45:28;9.87;;;8.87;;
6193;SDS011;3130;41.564;23.280;2023-04-23T02:47:55;9.90;;;8.83;;
6193;SDS011;3130;41.564;23.280;2023-04-23T02:50:24;10.27;;;9.20;;
6193;SDS011;3130;41.564;23.280;2023-04-23T02:52:51;9.37;;;8.37;;
6193;SDS011;3130;41.564;23.280;2023-04-23T02:55:18;9.37;;;8.37;;
6193;SDS011;3130;41.564;23.280;2023-04-23T02:57:45;10.90;;;8.77;;
6193;SDS011;3130;41.564;23.280;2023-04-23T03:00:12;8.37;;;6.63;;
6193;SDS011;3130;41.564;23.280;2023-04-23T03:02:41;11.10;;;9.77;;
6193;SDS011;3130;41.564;23.280;2023-04-23T03:05:08;13.83;;;9.03;;
6193;SDS011;3130;41.564;23.280;2023-04-23T03:07:36;10.80;;;8.23;;
6193;SDS011;3130;41.564;23.280;2023-04-23T03:10:04;11.07;;;9.20;;
6193;SDS011;3130;41.564;23.280;2023-04-23T03:12:32;14.40;;;9.00;;
6193;SDS011;3130;41.564;23.280;2023-04-23T03:14:59;10.40;;;8.60;;
6193;SDS011;3130;41.564;23.280;2023-04-23T03:17:26;9.93;;;8.70;;
6193;SDS011;3130;41.564;23.280;2023-04-23T03:19:53;12.30;;;9.83;;
6193;SDS011;3130;41.564;23.280;2023-04-23T03:22:20;11.23;;;9.47;;
6193;SDS011;3130;41.564;23.280;2023-04-23T03:24:49;10.67;;;9.17;;
6193;SDS011;3130;41.564;23.280;2023-04-23T03:27:16;13.60;;;9.17;;
6193;SDS011;3130;41.564;23.280;2023-04-23T03:29:43;11.00;;;8.60;;
6193;SDS011;3130;41.564;23.280;2023-04-23T03:32:10;10.07;;;8.93;;
6193;SDS011;3130;41.564;23.280;2023-04-23T03:34:37;11.50;;;8.87;;
6193;SDS011;3130;41.564;23.280;2023-04-23T03:37:04;10.17;;;9.10;;
6193;SDS011;3130;41.564;23.280;2023-04-23T03:39:31;9.80;;;8.63;;
6193;SDS011;3130;41.564;23.280;2023-04-23T03:41:59;12.13;;;9.03;;
6193;SDS011;3130;41.564;23.280;2023-04-23T03:44:27;10.63;;;8.57;;
6193;SDS011;3130;41.564;23.280;2023-04-23T03:46:54;10.77;;;8.67;;
6193;SDS011;3130;41.564;23.280;2023-04-23T03:49:21;10.17;;;9.07;;
6193;SDS011;3130;41.564;23.280;2023-04-23T03:51:48;11.23;;;9.07;;
6193;SDS011;3130;41.564;23.280;2023-04-23T03:54:15;9.77;;;7.83;;
6193;SDS011;3130;41.564;23.280;2023-04-23T03:56:42;10.77;;;9.63;;
6193;SDS011;3130;41.564;23.280;2023-04-23T03:59:11;11.10;;;8.97;;
6193;SDS011;3130;41.564;23.280;2023-04-23T04:01:38;9.80;;;8.80;;
6193;SDS011;3130;41.564;23.280;2023-04-23T04:04:05;13.07;;;9.70;;
6193;SDS011;3130;41.564;23.280;2023-04-23T04:06:32;12.00;;;9.63;;
6193;SDS011;3130;41.564;23.280;2023-04-23T04:08:59;10.57;;;8.40;;
6193;SDS011;3130;41.564;23.280;2023-04-23T04:11:26;9.50;;;8.50;;
6193;SDS011;3130;41.564;23.280;2023-04-23T04:13:53;10.80;;;7.93;;
6193;SDS011;3130;41.564;23.280;2023-04-23T04:16:21;9.33;;;8.33;;
6193;SDS011;3130;41.564;23.280;2023-04-23T04:18:48;10.17;;;8.77;;
6193;SDS011;3130;41.564;23.280;2023-04-23T04:21:16;9.73;;;8.83;;
6193;SDS011;3130;41.564;23.280;2023-04-23T04:23:43;10.47;;;8.47;;
6193;SDS011;3130;41.564;23.280;2023-04-23T04:26:11;11.23;;;9.50;;
6193;SDS011;3130;41.564;23.280;2023-04-23T04:28:39;11.30;;;8.70;;
6193;SDS011;3130;41.564;23.280;2023-04-23T04:31:06;9.97;;;8.27;;
6193;SDS011;3130;41.564;23.280;2023-04-23T04:33:35;12.43;;;9.63;;
6193;SDS011;3130;41.564;23.280;2023-04-23T04:36:04;11.93;;;10.00;;
6193;SDS011;3130;41.564;23.280;2023-04-23T04:38:32;14.90;;;9.57;;
6193;SDS011;3130;41.564;23.280;2023-04-23T04:41:02;11.57;;;8.87;;
6193;SDS011;3130;41.564;23.280;2023-04-23T04:43:29;10.03;;;9.03;;
6193;SDS011;3130;41.564;23.280;2023-04-23T04:45:56;9.93;;;8.50;;
6193;SDS011;3130;41.564;23.280;2023-04-23T04:48:24;11.67;;;9.40;;
6193;SDS011;3130;41.564;23.280;2023-04-23T04:50:52;12.77;;;9.40;;
6193;SDS011;3130;41.564;23.280;2023-04-23T04:53:19;11.53;;;8.10;;
6193;SDS011;3130;41.564;23.280;2023-04-23T04:55:47;14.10;;;9.33;;
6193;SDS011;3130;41.564;23.280;2023-04-23T04:58:14;12.47;;;11.03;;
6193;SDS011;3130;41.564;23.280;2023-04-23T05:00:41;11.33;;;10.13;;
6193;SDS011;3130;41.564;23.280;2023-04-23T05:03:08;10.73;;;9.00;;
6193;SDS011;3130;41.564;23.280;2023-04-23T05:05:35;11.20;;;9.97;;
6193;SDS011;3130;41.564;23.280;2023-04-23T05:08:04;13.07;;;10.33;;
6193;SDS011;3130;41.564;23.280;2023-04-23T05:10:31;16.10;;;9.47;;
6193;SDS011;3130;41.564;23.280;2023-04-23T05:12:58;12.03;;;10.03;;
6193;SDS011;3130;41.564;23.280;2023-04-23T05:15:26;15.43;;;11.33;;
6193;SDS011;3130;41.564;23.280;2023-04-23T05:17:53;12.87;;;10.67;;
6193;SDS011;3130;41.564;23.280;2023-04-23T05:20:20;11.90;;;10.07;;
6193;SDS011;3130;41.564;23.280;2023-04-23T05:22:47;11.33;;;10.17;;
6193;SDS011;3130;41.564;23.280;2023-04-23T05:25:16;12.40;;;10.17;;
6193;SDS011;3130;41.564;23.280;2023-04-23T05:27:43;13.63;;;11.47;;
6193;SDS011;3130;41.564;23.280;2023-04-23T05:30:10;12.53;;;11.10;;
6193;SDS011;3130;41.564;23.280;2023-04-23T05:32:37;13.40;;;10.57;;
6193;SDS011;3130;41.564;23.280;2023-04-23T05:35:05;15.47;;;10.57;;
6193;SDS011;3130;41.564;23.280;2023-04-23T05:37:32;11.57;;;9.57;;
6193;SDS011;3130;41.564;23.280;2023-04-23T05:40:00;12.37;;;9.90;;
6193;SDS011;3130;41.564;23.280;2023-04-23T05:42:32;12.20;;;10.57;;
6193;SDS011;3130;41.564;23.280;2023-04-23T05:45:00;11.37;;;10.17;;
6193;SDS011;3130;41.564;23.280;2023-04-23T05:47:27;9.37;;;8.30;;
6193;SDS011;3130;41.564;23.280;2023-04-23T05:49:54;11.07;;;9.97;;
6193;SDS011;3130;41.564;23.280;2023-04-23T05:52:22;10.33;;;9.23;;
6193;SDS011;3130;41.564;23.280;2023-04-23T05:54:49;9.80;;;8.80;;
6193;SDS011;3130;41.564;23.280;2023-04-23T05:57:16;10.53;;;9.43;;
6193;SDS011;3130;41.564;23.280;2023-04-23T05:59:45;11.00;;;8.97;;
6193;SDS011;3130;41.564;23.280;2023-04-23T06:02:12;10.10;;;8.50;;
6193;SDS011;3130;41.564;23.280;2023-04-23T06:04:39;14.90;;;13.33;;
6193;SDS011;3130;41.564;23.280;2023-04-23T06:07:06;18.67;;;15.10;;
6193;SDS011;3130;41.564;23.280;2023-04-23T06:09:33;20.83;;;16.07;;
6193;SDS011;3130;41.564;23.280;2023-04-23T06:12:00;25.20;;;21.90;;
6193;SDS011;3130;41.564;23.280;2023-04-23T06:14:28;33.47;;;26.27;;
6193;SDS011;3130;41.564;23.280;2023-04-23T06:16:57;32.70;;;28.00;;
6193;SDS011;3130;41.564;23.280;2023-04-23T06:19:24;42.53;;;35.23;;
6193;SDS011;3130;41.564;23.280;2023-04-23T06:21:52;41.40;;;34.60;;
6193;SDS011;3130;41.564;23.280;2023-04-23T06:24:19;42.73;;;35.93;;
6193;SDS011;3130;41.564;23.280;2023-04-23T06:26:46;45.37;;;38.50;;
6193;SDS011;3130;41.564;23.280;2023-04-23T06:29:13;41.70;;;35.47;;
6193;SDS011;3130;41.564;23.280;2023-04-23T06:31:40;43.93;;;36.80;;
6193;SDS011;3130;41.564;23.280;2023-04-23T06:34:08;37.47;;;32.87;;
6193;SDS011;3130;41.564;23.280;2023-04-23T06:36:35;39.73;;;33.17;;
6193;SDS011;3130;41.564;23.280;2023-04-23T06:39:02;36.73;;;31.83;;
6193;SDS011;3130;41.564;23.280;2023-04-23T06:41:29;29.90;;;25.63;;
6193;SDS011;3130;41.564;23.280;2023-04-23T06:43:56;24.53;;;19.47;;
6193;SDS011;3130;41.564;23.280;2023-04-23T06:46:23;25.80;;;19.40;;
6193;SDS011;3130;41.564;23.280;2023-04-23T06:48:50;22.87;;;19.40;;
6193;SDS011;3130;41.564;23.280;2023-04-23T06:51:19;18.90;;;16.97;;
6193;SDS011;3130;41.564;23.280;2023-04-23T06:53:46;22.13;;;19.73;;
6193;SDS011;3130;41.564;23.280;2023-04-23T06:56:13;19.23;;;17.23;;
6193;SDS011;3130;41.564;23.280;2023-04-23T06:58:40;21.07;;;18.10;;
6193;SDS011;3130;41.564;23.280;2023-04-23T07:01:07;19.27;;;17.30;;
6193;SDS011;3130;41.564;23.280;2023-04-23T07:03:35;18.00;;;16.20;;
6193;SDS011;3130;41.564;23.280;2023-04-23T07:06:02;20.03;;;15.60;;
6193;SDS011;3130;41.564;23.280;2023-04-23T07:08:31;15.27;;;13.73;;
6193;SDS011;3130;41.564;23.280;2023-04-23T07:10:58;14.10;;;12.70;;
6193;SDS011;3130;41.564;23.280;2023-04-23T07:13:25;15.82;;;12.13;;
6193;SDS011;3130;41.564;23.280;2023-04-23T07:15:52;13.52;;;12.23;;
6193;SDS011;3130;41.564;23.280;2023-04-23T07:18:19;13.05;;;11.32;;
6193;SDS011;3130;41.564;23.280;2023-04-23T07:20:46;10.70;;;9.60;;
6193;SDS011;3130;41.564;23.280;2023-04-23T07:23:13;10.00;;;8.95;;
6193;SDS011;3130;41.564;23.280;2023-04-23T07:25:41;10.30;;;8.27;;
6193;SDS011;3130;41.564;23.280;2023-04-23T07:28:08;9.45;;;8.45;;
6193;SDS011;3130;41.564;23.280;2023-04-23T07:30:35;8.77;;;7.90;;
6193;SDS011;3130;41.564;23.280;2023-04-23T07:33:02;8.88;;;7.25;;
6193;SDS011;3130;41.564;23.280;2023-04-23T07:35:29;9.45;;;8.52;;
6193;SDS011;3130;41.564;23.280;2023-04-23T07:37:56;10.18;;;8.95;;
6193;SDS011;3130;41.564;23.280;2023-04-23T07:40:23;9.43;;;8.15;;
6193;SDS011;3130;41.564;23.280;2023-04-23T07:42:52;10.32;;;9.32;;
6193;SDS011;3130;41.564;23.280;2023-04-23T07:45:19;7.63;;;6.93;;
6193;SDS011;3130;41.564;23.280;2023-04-23T07:47:46;8.00;;;7.20;;
6193;SDS011;3130;41.564;23.280;2023-04-23T07:50:15;7.82;;;6.47;;
6193;SDS011;3130;41.564;23.280;2023-04-23T07:52:42;7.78;;;6.32;;
6193;SDS011;3130;41.564;23.280;2023-04-23T07:55:09;7.75;;;7.05;;
6193;SDS011;3130;41.564;23.280;2023-04-23T07:57:36;6.53;;;5.90;;
6193;SDS011;3130;41.564;23.280;2023-04-23T08:00:05;6.40;;;5.80;;
6193;SDS011;3130;41.564;23.280;2023-04-23T08:02:35;6.13;;;5.32;;
6193;SDS011;3130;41.564;23.280;2023-04-23T08:05:02;5.53;;;4.75;;
6193;SDS011;3130;41.564;23.280;2023-04-23T08:07:30;5.70;;;5.18;;
6193;SDS011;3130;41.564;23.280;2023-04-23T08:09:58;6.28;;;5.68;;
6193;SDS011;3130;41.564;23.280;2023-04-23T08:12:28;5.55;;;4.75;;
6193;SDS011;3130;41.564;23.280;2023-04-23T08:14:55;6.97;;;6.30;;
6193;SDS011;3130;41.564;23.280;2023-04-23T08:17:24;6.97;;;6.27;;
6193;SDS011;3130;41.564;23.280;2023-04-23T08:19:51;7.83;;;7.13;;
6193;SDS011;3130;41.564;23.280;2023-04-23T08:22:18;7.97;;;6.97;;
6193;SDS011;3130;41.564;23.280;2023-04-23T08:24:45;7.27;;;6.57;;
6193;SDS011;3130;41.564;23.280;2023-04-23T08:27:12;6.97;;;6.37;;
6193;SDS011;3130;41.564;23.280;2023-04-23T08:29:39;7.97;;;7.17;;
6193;SDS011;3130;41.564;23.280;2023-04-23T08:32:06;7.03;;;5.93;;
6193;SDS011;3130;41.564;23.280;2023-04-23T08:34:34;9.30;;;6.67;;
6193;SDS011;3130;41.564;23.280;2023-04-23T08:37:01;10.23;;;7.87;;
6193;SDS011;3130;41.564;23.280;2023-04-23T08:39:29;8.97;;;6.73;;
6193;SDS011;3130;41.564;23.280;2023-04-23T08:41:57;8.70;;;6.93;;
6193;SDS011;3130;41.564;23.280;2023-04-23T08:44:35;8.27;;;7.47;;
6193;SDS011;3130;41.564;23.280;2023-04-23T08:47:06;7.97;;;7.27;;
6193;SDS011;3130;41.564;23.280;2023-04-23T08:49:38;8.43;;;7.57;;
6193;SDS011;3130;41.564;23.280;2023-04-23T08:52:11;8.70;;;7.37;;
6193;SDS011;3130;41.564;23.280;2023-04-23T08:54:44;9.87;;;8.10;;
6193;SDS011;3130;41.564;23.280;2023-04-23T08:57:15;8.97;;;8.07;;
6193;SDS011;3130;41.564;23.280;2023-04-23T08:59:43;8.57;;;7.77;;
6193;SDS011;3130;41.564;23.280;2023-04-23T09:02:11;8.13;;;7.33;;
6193;SDS011;3130;41.564;23.280;2023-04-23T09:04:41;8.83;;;7.80;;
6193;SDS011;3130;41.564;23.280;2023-04-23T09:07:10;8.40;;;7.60;;
6193;SDS011;3130;41.564;23.280;2023-04-23T09:09:39;8.60;;;7.67;;
6193;SDS011;3130;41.564;23.280;2023-04-23T09:12:07;8.50;;;7.60;;
6193;SDS011;3130;41.564;23.280;2023-04-23T09:14:34;7.80;;;7.00;;
6193;SDS011;3130;41.564;23.280;2023-04-23T09:17:02;8.33;;;7.47;;
6193;SDS011;3130;41.564;23.280;2023-04-23T09:19:29;8.17;;;7.23;;
6193;SDS011;3130;41.564;23.280;2023-04-23T09:21:58;8.30;;;6.60;;
6193;SDS011;3130;41.564;23.280;2023-04-23T09:24:26;7.67;;;6.97;;
6193;SDS011;3130;41.564;23.280;2023-04-23T09:26:54;7.30;;;6.60;;
6193;SDS011;3130;41.564;23.280;2023-04-23T09:29:23;7.60;;;6.90;;
6193;SDS011;3130;41.564;23.280;2023-04-23T09:31:50;8.37;;;7.50;;
6193;SDS011;3130;41.564;23.280;2023-04-23T09:34:19;6.77;;;6.17;;
6193;SDS011;3130;41.564;23.280;2023-04-23T09:36:48;7.00;;;6.30;;
6193;SDS011;3130;41.564;23.280;2023-04-23T09:39:18;8.30;;;5.83;;
6193;SDS011;3130;41.564;23.280;2023-04-23T09:41:47;6.10;;;5.57;;
6193;SDS011;3130;41.564;23.280;2023-04-23T09:44:16;7.63;;;6.07;;
6193;SDS011;3130;41.564;23.280;2023-04-23T09:46:44;6.03;;;5.43;;
6193;SDS011;3130;41.564;23.280;2023-04-23T09:49:11;6.83;;;6.13;;
6193;SDS011;3130;41.564;23.280;2023-04-23T09:51:39;6.60;;;5.97;;
6193;SDS011;3130;41.564;23.280;2023-04-23T09:54:11;6.27;;;5.70;;
6193;SDS011;3130;41.564;23.280;2023-04-23T09:56:41;6.43;;;5.83;;
6193;SDS011;3130;41.564;23.280;2023-04-23T09:59:18;5.87;;;4.83;;
6193;SDS011;3130;41.564;23.280;2023-04-23T10:01:46;5.97;;;5.43;;
6193;SDS011;3130;41.564;23.280;2023-04-23T10:04:16;5.93;;;5.10;;
6193;SDS011;3130;41.564;23.280;2023-04-23T10:06:45;6.73;;;5.47;;
6193;SDS011;3130;41.564;23.280;2023-04-23T10:09:12;6.53;;;5.93;;
6193;SDS011;3130;41.564;23.280;2023-04-23T10:11:41;7.43;;;6.67;;
6193;SDS011;3130;41.564;23.280;2023-04-23T10:14:09;6.80;;;6.13;;
6193;SDS011;3130;41.564;23.280;2023-04-23T10:16:36;6.53;;;5.93;;
6193;SDS011;3130;41.564;23.280;2023-04-23T10:19:06;6.10;;;5.60;;
6193;SDS011;3130;41.564;23.280;2023-04-23T10:21:39;6.47;;;5.73;;
6193;SDS011;3130;41.564;23.280;2023-04-23T10:24:07;7.90;;;6.13;;
6193;SDS011;3130;41.564;23.280;2023-04-23T10:26:37;7.23;;;6.53;;
6193;SDS011;3130;41.564;23.280;2023-04-23T10:29:08;6.20;;;5.70;;
6193;SDS011;3130;41.564;23.280;2023-04-23T10:31:39;6.10;;;5.60;;
6193;SDS011;3130;41.564;23.280;2023-04-23T10:34:08;5.17;;;4.70;;
6193;SDS011;3130;41.564;23.280;2023-04-23T10:36:35;7.93;;;5.57;;
6193;SDS011;3130;41.564;23.280;2023-04-23T10:39:03;6.10;;;5.50;;
6193;SDS011;3130;41.564;23.280;2023-04-23T10:41:34;5.63;;;5.13;;
6193;SDS011;3130;41.564;23.280;2023-04-23T10:44:04;6.00;;;5.47;;
6193;SDS011;3130;41.564;23.280;2023-04-23T10:46:33;6.77;;;5.80;;
6193;SDS011;3130;41.564;23.280;2023-04-23T10:49:06;6.97;;;5.83;;
6193;SDS011;3130;41.564;23.280;2023-04-23T10:51:38;6.43;;;5.37;;
6193;SDS011;3130;41.564;23.280;2023-04-23T10:54:06;6.43;;;5.83;;
6193;SDS011;3130;41.564;23.280;2023-04-23T10:56:36;8.77;;;5.60;;
6193;SDS011;3130;41.564;23.280;2023-04-23T10:59:04;5.87;;;5.13;;
6193;SDS011;3130;41.564;23.280;2023-04-23T11:01:34;5.60;;;5.10;;
6193;SDS011;3130;41.564;23.280;2023-04-23T11:06:50;6.30;;;5.30;;
6193;SDS011;3130;41.564;23.280;2023-04-23T11:09:28;6.57;;;5.90;;
6193;SDS011;3130;41.564;23.280;2023-04-23T11:12:13;6.73;;;6.13;;
6193;SDS011;3130;41.564;23.280;2023-04-23T11:14:57;6.10;;;5.50;;
6193;SDS011;3130;41.564;23.280;2023-04-23T11:20:26;5.47;;;4.97;;
6193;SDS011;3130;41.564;23.280;2023-04-23T11:22:53;5.50;;;5.07;;
6193;SDS011;3130;41.564;23.280;2023-04-23T11:25:21;6.07;;;5.37;;
6193;SDS011;3130;41.564;23.280;2023-04-23T11:27:50;6.27;;;5.67;;
6193;SDS011;3130;41.564;23.280;2023-04-23T11:30:20;6.10;;;5.50;;
6193;SDS011;3130;41.564;23.280;2023-04-23T11:32:50;6.13;;;5.50;;
6193;SDS011;3130;41.564;23.280;2023-04-23T11:35:20;6.27;;;5.63;;
6193;SDS011;3130;41.564;23.280;2023-04-23T11:37:48;5.37;;;4.90;;
6193;SDS011;3130;41.564;23.280;2023-04-23T11:40:16;6.90;;;5.97;;
6193;SDS011;3130;41.564;23.280;2023-04-23T11:42:44;6.80;;;6.13;;
6193;SDS011;3130;41.564;23.280;2023-04-23T11:45:14;6.93;;;5.93;;
6193;SDS011;3130;41.564;23.280;2023-04-23T11:47:42;6.30;;;5.70;;
6193;SDS011;3130;41.564;23.280;2023-04-23T11:50:10;7.57;;;5.73;;
6193;SDS011;3130;41.564;23.280;2023-04-23T11:52:44;7.30;;;6.60;;
6193;SDS011;3130;41.564;23.280;2023-04-23T11:55:11;5.60;;;5.07;;
6193;SDS011;3130;41.564;23.280;2023-04-23T11:57:40;5.47;;;4.97;;
6193;SDS011;3130;41.564;23.280;2023-04-23T12:00:14;10.67;;;5.37;;
6193;SDS011;3130;41.564;23.280;2023-04-23T12:02:49;4.93;;;4.53;;
6193;SDS011;3130;41.564;23.280;2023-04-23T12:05:20;5.20;;;4.70;;
6193;SDS011;3130;41.564;23.280;2023-04-23T12:07:50;7.23;;;5.00;;
6193;SDS011;3130;41.564;23.280;2023-04-23T12:10:18;6.90;;;5.40;;
6193;SDS011;3130;41.564;23.280;2023-04-23T12:12:49;5.00;;;4.60;;
6193;SDS011;3130;41.564;23.280;2023-04-23T12:15:17;6.37;;;5.53;;
6193;SDS011;3130;41.564;23.280;2023-04-23T12:17:48;4.93;;;4.27;;
6193;SDS011;3130;41.564;23.280;2023-04-23T12:20:17;5.70;;;5.20;;
6193;SDS011;3130;41.564;23.280;2023-04-23T12:22:45;6.17;;;5.33;;
6193;SDS011;3130;41.564;23.280;2023-04-23T12:25:14;5.73;;;5.23;;
6193;SDS011;3130;41.564;23.280;2023-04-23T12:27:43;6.00;;;4.93;;
6193;SDS011;3130;41.564;23.280;2023-04-23T12:30:10;4.60;;;4.20;;
6193;SDS011;3130;41.564;23.280;2023-04-23T12:32:39;5.43;;;4.93;;
6193;SDS011;3130;41.564;23.280;2023-04-23T12:35:07;7.93;;;5.53;;
6193;SDS011;3130;41.564;23.280;2023-04-23T12:37:35;4.10;;;3.73;;
6193;SDS011;3130;41.564;23.280;2023-04-23T12:40:03;4.93;;;4.43;;
6193;SDS011;3130;41.564;23.280;2023-04-23T12:42:33;4.57;;;4.00;;
6193;SDS011;3130;41.564;23.280;2023-04-23T12:45:05;5.20;;;4.70;;
6193;SDS011;3130;41.564;23.280;2023-04-23T12:47:33;5.83;;;5.23;;
6193;SDS011;3130;41.564;23.280;2023-04-23T12:50:00;6.37;;;5.37;;
6193;SDS011;3130;41.564;23.280;2023-04-23T12:52:29;6.00;;;5.40;;
6193;SDS011;3130;41.564;23.280;2023-04-23T12:54:57;5.23;;;4.73;;
6193;SDS011;3130;41.564;23.280;2023-04-23T12:57:25;8.50;;;5.80;;
6193;SDS011;3130;41.564;23.280;2023-04-23T12:59:54;6.80;;;5.20;;
6193;SDS011;3130;41.564;23.280;2023-04-23T13:02:22;6.17;;;5.57;;
6193;SDS011;3130;41.564;23.280;2023-04-23T13:04:50;6.87;;;5.50;;
6193;SDS011;3130;41.564;23.280;2023-04-23T13:07:18;6.10;;;5.50;;
6193;SDS011;3130;41.564;23.280;2023-04-23T13:09:45;8.77;;;6.70;;
6193;SDS011;3130;41.564;23.280;2023-04-23T13:12:13;7.53;;;5.17;;
6193;SDS011;3130;41.564;23.280;2023-04-23T13:14:40;7.03;;;4.93;;
6193;SDS011;3130;41.564;23.280;2023-04-23T13:17:08;6.20;;;5.40;;
6193;SDS011;3130;41.564;23.280;2023-04-23T13:19:35;5.97;;;5.13;;
6193;SDS011;3130;41.564;23.280;2023-04-23T13:22:03;6.43;;;5.13;;
6193;SDS011;3130;41.564;23.280;2023-04-23T13:24:31;6.07;;;5.20;;
6193;SDS011;3130;41.564;23.280;2023-04-23T13:26:58;6.33;;;5.73;;
6193;SDS011;3130;41.564;23.280;2023-04-23T13:29:26;7.23;;;5.03;;
6193;SDS011;3130;41.564;23.280;2023-04-23T13:31:54;5.73;;;5.20;;
6193;SDS011;3130;41.564;23.280;2023-04-23T13:34:23;5.37;;;4.87;;
6193;SDS011;3130;41.564;23.280;2023-04-23T13:36:50;6.80;;;5.80;;
6193;SDS011;3130;41.564;23.280;2023-04-23T13:39:17;5.67;;;5.07;;
6193;SDS011;3130;41.564;23.280;2023-04-23T13:41:45;6.93;;;6.20;;
6193;SDS011;3130;41.564;23.280;2023-04-23T13:44:12;6.33;;;5.73;;
6193;SDS011;3130;41.564;23.280;2023-04-23T13:46:40;6.80;;;5.83;;
6193;SDS011;3130;41.564;23.280;2023-04-23T13:49:08;6.77;;;6.10;;
6193;SDS011;3130;41.564;23.280;2023-04-23T13:51:36;8.00;;;6.00;;
6193;SDS011;3130;41.564;23.280;2023-04-23T13:54:03;6.07;;;5.20;;
6193;SDS011;3130;41.564;23.280;2023-04-23T13:56:31;7.03;;;5.27;;
6193;SDS011;3130;41.564;23.280;2023-04-23T13:58:58;5.33;;;4.80;;
6193;SDS011;3130;41.564;23.280;2023-04-23T14:01:26;5.67;;;4.90;;
6193;SDS011;3130;41.564;23.280;2023-04-23T14:03:54;5.27;;;4.70;;
6193;SDS011;3130;41.564;23.280;2023-04-23T14:06:21;7.00;;;5.17;;
6193;SDS011;3130;41.564;23.280;2023-04-23T14:08:50;5.40;;;4.60;;
6193;SDS011;3130;41.564;23.280;2023-04-23T14:11:17;5.30;;;4.80;;
6193;SDS011;3130;41.564;23.280;2023-04-23T14:13:44;5.50;;;4.97;;
6193;SDS011;3130;41.564;23.280;2023-04-23T14:16:11;5.60;;;5.10;;
6193;SDS011;3130;41.564;23.280;2023-04-23T14:18:38;5.87;;;4.50;;
6193;SDS011;3130;41.564;23.280;2023-04-23T14:21:05;5.00;;;4.50;;
6193;SDS011;3130;41.564;23.280;2023-04-23T14:23:42;4.80;;;4.30;;
6193;SDS011;3130;41.564;23.280;2023-04-23T14:26:21;6.17;;;5.00;;
6193;SDS011;3130;41.564;23.280;2023-04-23T14:28:55;5.00;;;4.50;;
6193;SDS011;3130;41.564;23.280;2023-04-23T14:31:27;5.43;;;4.73;;
6193;SDS011;3130;41.564;23.280;2023-04-23T14:33:55;4.40;;;4.00;;
6193;SDS011;3130;41.564;23.280;2023-04-23T14:36:23;5.30;;;4.27;;
6193;SDS011;3130;41.564;23.280;2023-04-23T14:38:50;9.13;;;4.47;;
6193;SDS011;3130;41.564;23.280;2023-04-23T14:41:18;7.90;;;5.77;;
6193;SDS011;3130;41.564;23.280;2023-04-23T14:43:46;4.70;;;4.10;;
6193;SDS011;3130;41.564;23.280;2023-04-23T14:46:13;3.90;;;3.60;;
6193;SDS011;3130;41.564;23.280;2023-04-23T14:48:40;4.47;;;4.07;;
6193;SDS011;3130;41.564;23.280;2023-04-23T14:51:07;5.03;;;4.53;;
6193;SDS011;3130;41.564;23.280;2023-04-23T14:53:34;5.17;;;4.67;;
6193;SDS011;3130;41.564;23.280;2023-04-23T14:56:01;5.17;;;4.77;;
6193;SDS011;3130;41.564;23.280;2023-04-23T14:58:28;4.13;;;3.43;;
6193;SDS011;3130;41.564;23.280;2023-04-23T15:00:57;3.43;;;3.13;;
6193;SDS011;3130;41.564;23.280;2023-04-23T15:03:24;5.40;;;3.83;;